createdAt,value
2019-05-18T00:00:50.934Z,73.30
2019-05-18T00:05:50.812Z,59.40
2019-05-18T00:10:50.770Z,98.20
2019-05-18T00:15:50.642Z,96.90
2019-05-18T00:20:50.649Z,56.40
2019-05-18T00:25:50.621Z,59.60
2019-05-18T00:30:50.623Z,103.20
2019-05-18T00:35:59.877Z,58.20
2019-05-18T00:40:50.300Z,58.50
2019-05-18T00:45:50.266Z,86.20
2019-05-18T00:50:50.208Z,89.30
2019-05-18T00:55:50.216Z,83.70
2019-05-18T01:00:50.094Z,64.40
2019-05-18T01:05:50.035Z,85.40
2019-05-18T01:10:49.989Z,50.60
2019-05-18T01:15:49.906Z,91.10
2019-05-18T01:20:49.868Z,62.30
2019-05-18T01:25:49.837Z,78.40
2019-05-18T01:30:49.774Z,56.70
2019-05-18T01:35:49.909Z,48.10
2019-05-18T01:40:49.816Z,61.70
2019-05-18T01:45:51.570Z,60.70
2019-05-18T01:50:49.689Z,69.00
2019-05-18T01:55:49.642Z,74.70
2019-05-18T02:00:49.553Z,93.30
2019-05-18T02:05:49.481Z,85.10
2019-05-18T02:10:49.533Z,56.70
2019-05-18T02:15:49.392Z,37.90
2019-05-18T02:20:49.357Z,72.20
2019-05-18T02:25:49.309Z,110.50
2019-05-18T02:30:49.208Z,61.40
2019-05-18T02:35:49.166Z,56.50
2019-05-18T02:40:49.110Z,51.80
2019-05-18T02:45:49.076Z,50.30
2019-05-18T02:50:49.006Z,49.30
2019-05-18T02:55:49.005Z,93.00
2019-05-18T03:00:48.944Z,66.70
2019-05-18T03:05:48.876Z,82.30
2019-05-18T03:10:48.808Z,44.00
2019-05-18T03:15:48.733Z,44.50
2019-05-18T03:20:48.770Z,55.80
2019-05-18T03:25:48.777Z,43.00
2019-05-18T03:30:48.656Z,60.50
2019-05-18T03:35:48.621Z,37.40
2019-05-18T03:40:48.485Z,35.80
2019-05-18T03:45:48.426Z,49.40
2019-05-18T03:50:48.332Z,39.40
2019-05-18T03:55:48.289Z,37.30
2019-05-18T04:00:48.242Z,43.80
2019-05-18T04:05:48.166Z,39.90
2019-05-18T04:10:48.094Z,40.90
2019-05-18T04:15:48.034Z,37.10
2019-05-18T04:20:48.006Z,36.60
2019-05-18T04:25:47.956Z,37.80
2019-05-18T04:30:47.879Z,43.10
2019-05-18T04:35:47.944Z,44.30
2019-05-18T04:40:47.917Z,72.80
2019-05-18T04:45:47.711Z,75.80
2019-05-18T04:50:47.763Z,54.70
2019-05-18T04:55:47.705Z,50.30
2019-05-18T05:00:47.635Z,85.20
2019-05-18T05:05:47.563Z,72.70
2019-05-18T05:10:47.477Z,48.30
2019-05-18T05:15:47.427Z,36.40
2019-05-18T05:20:47.346Z,40.50
2019-05-18T05:25:47.282Z,35.60
2019-05-18T05:30:47.231Z,36.20
2019-05-18T05:35:47.179Z,28.70
2019-05-18T05:40:47.105Z,38.10
2019-05-18T05:45:47.070Z,30.40
2019-05-18T05:50:47.020Z,36.10
2019-05-18T05:55:47.036Z,32.70
2019-05-18T06:00:46.980Z,33.40
2019-05-18T06:05:46.988Z,34.90
2019-05-18T06:10:47.982Z,32.40
2019-05-18T06:15:46.801Z,27.20
2019-05-18T06:20:51.575Z,28.20
2019-05-18T06:25:47.677Z,25.80
2019-05-18T06:30:46.776Z,24.50
2019-05-18T06:35:46.673Z,25.90
2019-05-18T06:40:46.546Z,27.30
2019-05-18T06:45:55.888Z,23.90
2019-05-18T06:50:46.426Z,25.00
2019-05-18T06:55:46.291Z,24.60
2019-05-18T07:00:46.234Z,27.60
2019-05-18T07:05:46.207Z,29.90
2019-05-18T07:10:46.140Z,30.90
2019-05-18T07:15:46.114Z,27.30
2019-05-18T07:20:46.433Z,25.60
2019-05-18T07:25:46.031Z,26.70
2019-05-18T07:30:45.967Z,24.40
2019-05-18T07:35:46.264Z,25.90
2019-05-18T07:40:46.932Z,25.30
2019-05-18T07:45:45.910Z,24.70
2019-05-18T07:50:45.804Z,24.40
2019-05-18T07:55:45.819Z,25.00
2019-05-18T08:00:45.871Z,23.00
2019-05-18T08:05:45.632Z,24.10
2019-05-18T08:10:45.581Z,26.90
2019-05-18T08:15:45.527Z,25.20
2019-05-18T08:20:45.529Z,27.50
2019-05-18T08:25:45.728Z,24.60
2019-05-18T08:30:45.417Z,25.10
2019-05-18T08:35:45.336Z,24.80
2019-05-18T08:40:45.301Z,25.40
2019-05-18T08:45:45.262Z,25.10
2019-05-18T08:50:45.222Z,26.90
2019-05-18T08:55:45.155Z,24.30
2019-05-18T09:00:45.134Z,27.50
2019-05-18T09:05:45.054Z,28.90
2019-05-18T09:10:45.001Z,27.40
2019-05-18T09:15:44.944Z,24.20
2019-05-18T09:20:44.950Z,23.50
2019-05-18T09:25:44.872Z,22.40
2019-05-18T09:30:44.801Z,23.30
2019-05-18T09:35:44.793Z,24.00
2019-05-18T09:40:44.753Z,23.60
2019-05-18T09:45:44.681Z,24.20
2019-05-18T09:50:44.669Z,25.80
2019-05-18T09:55:44.616Z,23.40
2019-05-18T10:00:44.536Z,22.60
2019-05-18T10:05:44.561Z,23.10
2019-05-18T10:10:44.498Z,23.20
2019-05-18T10:15:44.516Z,23.50
2019-05-18T10:20:44.399Z,24.80
2019-05-18T10:25:44.339Z,23.60
2019-05-18T10:30:44.294Z,23.00
2019-05-18T10:35:44.270Z,21.40
2019-05-18T10:40:44.182Z,19.70
2019-05-18T10:45:45.193Z,25.00
2019-05-18T10:50:44.236Z,21.30
2019-05-18T10:55:44.056Z,16.80
2019-05-18T11:00:44.089Z,22.40
2019-05-18T11:05:44.020Z,16.80
2019-05-18T11:10:43.926Z,17.20
2019-05-18T11:15:43.898Z,17.40
2019-05-18T11:20:43.913Z,16.40
2019-05-18T11:25:43.849Z,16.30
2019-05-18T11:30:43.732Z,16.50
2019-05-18T11:35:43.712Z,15.20
2019-05-18T11:40:43.699Z,15.90
2019-05-18T11:45:43.610Z,15.80
2019-05-18T11:50:43.573Z,16.10
2019-05-18T11:55:43.539Z,14.90
2019-05-18T12:00:43.513Z,15.20
2019-05-18T12:05:43.549Z,17.30
2019-05-18T12:10:43.473Z,15.80
2019-05-18T12:15:43.353Z,16.40
2019-05-18T12:20:43.315Z,17.50
2019-05-18T12:25:43.286Z,17.10
2019-05-18T12:30:43.249Z,20.00
2019-05-18T12:35:43.177Z,16.60
2019-05-18T12:40:43.297Z,15.10
2019-05-18T12:45:43.090Z,12.50
2019-05-18T12:50:43.066Z,12.20
2019-05-18T12:55:51.945Z,12.90
2019-05-18T13:00:42.939Z,11.90
2019-05-18T13:05:42.927Z,14.00
2019-05-18T13:10:42.858Z,14.30
2019-05-18T13:15:42.852Z,15.80
2019-05-18T13:20:42.883Z,16.10
2019-05-18T13:25:42.748Z,13.70
2019-05-18T13:30:42.650Z,14.70
2019-05-18T13:35:45.504Z,19.00
2019-05-18T13:40:42.646Z,16.30
2019-05-18T13:45:42.518Z,16.00
2019-05-18T13:50:44.742Z,17.40
2019-05-18T13:55:42.491Z,15.00
2019-05-18T14:00:42.364Z,16.40
2019-05-18T14:05:42.331Z,15.60
2019-05-18T14:10:42.267Z,14.80
2019-05-18T14:15:42.206Z,14.10
2019-05-18T14:20:42.390Z,14.50
2019-05-18T14:25:42.145Z,14.10
2019-05-18T14:30:44.394Z,13.20
2019-05-18T14:35:48.751Z,15.40
2019-05-18T14:40:42.036Z,14.90
2019-05-18T14:45:42.095Z,15.10
2019-05-18T14:50:42.033Z,14.40
2019-05-18T14:55:41.850Z,16.60
2019-05-18T15:00:41.901Z,16.00
2019-05-18T15:05:41.826Z,17.10
2019-05-18T15:10:41.755Z,18.10
2019-05-18T15:15:41.663Z,16.10
2019-05-18T15:20:41.679Z,17.90
2019-05-18T15:25:50.145Z,18.50
2019-05-18T15:30:42.577Z,17.90
2019-05-18T15:35:41.514Z,21.40
2019-05-18T15:40:41.550Z,17.80
2019-05-18T15:45:41.481Z,15.30
2019-05-18T15:50:41.406Z,16.70
2019-05-18T15:55:41.361Z,16.50
2019-05-18T16:00:41.323Z,12.80
2019-05-18T16:05:43.196Z,15.90
2019-05-18T16:10:44.527Z,15.70
2019-05-18T16:15:41.116Z,15.00
2019-05-18T16:20:41.026Z,14.90
2019-05-18T16:25:40.990Z,14.40
2019-05-18T16:30:40.967Z,15.20
2019-05-18T16:35:40.988Z,16.70
2019-05-18T16:40:40.820Z,15.80
2019-05-18T16:45:40.804Z,16.60
2019-05-18T16:50:40.743Z,14.50
2019-05-18T16:55:40.639Z,13.10
2019-05-18T17:00:40.815Z,12.00
2019-05-18T17:05:40.623Z,10.20
2019-05-18T17:10:40.609Z,4.00
2019-05-18T17:15:40.513Z,4.40
2019-05-18T17:20:40.583Z,3.40
2019-05-18T17:25:40.385Z,2.80
2019-05-18T17:30:42.623Z,4.20
2019-05-18T17:35:40.241Z,3.20
2019-05-18T17:40:40.203Z,4.00
2019-05-18T17:45:40.163Z,4.80
2019-05-18T17:50:40.121Z,4.50
2019-05-18T17:55:40.062Z,4.30
2019-05-18T18:00:40.002Z,4.80
2019-05-18T18:05:39.941Z,4.70
2019-05-18T18:10:39.892Z,4.50
2019-05-18T18:15:39.916Z,4.20
2019-05-18T18:20:39.888Z,4.80
2019-05-18T18:25:40.224Z,5.70
2019-05-18T18:30:41.685Z,5.20
2019-05-18T18:35:39.832Z,4.70
2019-05-18T18:40:39.619Z,5.60
2019-05-18T18:45:39.621Z,5.70
2019-05-18T18:50:39.501Z,4.70
2019-05-18T18:55:41.509Z,5.90
2019-05-18T19:00:39.427Z,8.30
2019-05-18T19:05:39.355Z,9.50
2019-05-18T19:10:39.240Z,7.60
2019-05-18T19:15:39.166Z,7.60
2019-05-18T19:20:39.126Z,8.10
2019-05-18T19:25:39.066Z,8.60
2019-05-18T19:30:48.241Z,9.70
2019-05-18T19:35:38.948Z,8.00
2019-05-18T19:40:38.918Z,8.30
2019-05-18T19:45:38.847Z,8.90
2019-05-18T19:50:38.807Z,8.80
2019-05-18T19:55:38.729Z,8.90
2019-05-18T20:00:38.723Z,9.20
2019-05-18T20:05:38.800Z,10.90
2019-05-18T20:10:38.645Z,10.70
2019-05-18T20:15:38.527Z,12.30
2019-05-18T20:20:38.471Z,12.30
2019-05-18T20:25:38.446Z,12.70
2019-05-18T20:30:38.357Z,11.90
2019-05-18T20:35:38.324Z,12.10
2019-05-18T20:40:38.257Z,13.90
2019-05-18T20:45:38.203Z,14.20
2019-05-18T20:50:38.145Z,15.60
2019-05-18T20:55:38.109Z,17.30
2019-05-18T21:00:38.832Z,16.20
2019-05-18T21:05:38.061Z,17.10
2019-05-18T21:10:38.017Z,17.80
2019-05-18T21:15:37.890Z,15.00
2019-05-18T21:20:37.832Z,14.30
2019-05-18T21:25:37.763Z,14.00
2019-05-18T21:30:37.728Z,15.10
2019-05-18T21:35:37.673Z,17.60
2019-05-18T21:40:37.620Z,17.30
2019-05-18T21:45:37.554Z,17.50
2019-05-18T21:50:37.501Z,17.20
2019-05-18T21:55:37.462Z,15.70
2019-05-18T22:00:37.655Z,17.80
2019-05-18T22:05:37.350Z,17.70
2019-05-18T22:10:37.279Z,18.40
2019-05-18T22:15:37.228Z,18.70
2019-05-18T22:20:43.130Z,18.80
2019-05-18T22:25:38.151Z,17.70
2019-05-18T22:30:37.086Z,18.50
2019-05-18T22:35:37.019Z,19.60
2019-05-18T22:40:36.948Z,18.70
2019-05-18T22:45:36.935Z,19.30
2019-05-18T22:50:36.857Z,20.00
2019-05-18T22:55:36.808Z,20.70
2019-05-18T23:00:36.727Z,21.30
2019-05-18T23:05:36.697Z,23.00
2019-05-18T23:10:36.623Z,23.30
2019-05-18T23:15:36.561Z,25.20
2019-05-18T23:20:36.505Z,24.10
2019-05-18T23:25:36.499Z,24.30
2019-05-18T23:30:36.397Z,21.80
2019-05-18T23:35:36.365Z,22.50
2019-05-18T23:40:36.297Z,23.00
2019-05-18T23:45:36.269Z,22.70
2019-05-18T23:50:36.201Z,23.30
2019-05-18T23:55:36.138Z,24.20
